createdAt,value
2019-01-09T00:00:01.242Z,4.01
2019-01-09T00:05:01.521Z,4.02
2019-01-09T00:10:01.749Z,4.02
2019-01-09T00:15:01.990Z,3.98
2019-01-09T00:20:01.404Z,3.98
2019-01-09T00:25:01.685Z,3.97
2019-01-09T00:30:01.967Z,3.72
2019-01-09T00:35:01.249Z,3.68
2019-01-09T00:40:01.531Z,3.63
2019-01-09T00:45:01.808Z,3.57
2019-01-09T00:50:02.097Z,3.5
2019-01-09T00:55:01.339Z,3.69
2019-01-09T01:00:01.631Z,3.53
2019-01-09T01:05:01.911Z,3.57
2019-01-09T01:10:01.186Z,3.53
2019-01-09T01:15:01.444Z,3.54
2019-01-09T01:20:01.692Z,3.61
2019-01-09T01:25:01.957Z,3.59
2019-01-09T01:30:01.232Z,3.65
2019-01-09T01:35:01.564Z,3.43
2019-01-09T01:40:01.847Z,3.45
2019-01-09T01:45:01.264Z,3.4
2019-01-09T01:50:01.559Z,3.23
2019-01-09T01:55:01.869Z,3.18
2019-01-09T02:00:01.182Z,3.2
2019-01-09T02:05:01.537Z,3.34
2019-01-09T02:10:01.786Z,3.36
2019-01-09T02:15:02.054Z,3.41
2019-01-09T02:20:01.283Z,3.4
2019-01-09T02:25:01.546Z,3.41
2019-01-09T02:30:01.824Z,3.46
2019-01-09T02:35:01.174Z,3.4
2019-01-09T02:40:01.478Z,3.42
2019-01-09T02:45:01.857Z,3.42
2019-01-09T02:50:01.161Z,3.41
2019-01-09T02:55:01.484Z,3.47
2019-01-09T03:00:01.821Z,3.43
2019-01-09T03:05:01.195Z,3.42
2019-01-09T03:10:01.490Z,3.46
2019-01-09T03:15:01.796Z,3.42
2019-01-09T03:20:02.047Z,3.4
2019-01-09T03:25:01.363Z,3.43
2019-01-09T03:30:01.616Z,3.41
2019-01-09T03:35:01.875Z,3.43
2019-01-09T03:40:01.404Z,3.35
2019-01-09T03:45:01.704Z,3.29
2019-01-09T03:50:02.007Z,3.05
2019-01-09T03:55:01.279Z,3.08
2019-01-09T04:00:01.646Z,2.95
2019-01-09T04:05:01.949Z,2.85
2019-01-09T04:10:01.224Z,3.04
2019-01-09T04:15:01.560Z,2.91
2019-01-09T04:20:01.934Z,2.96
2019-01-09T04:25:01.174Z,2.9
2019-01-09T04:30:01.467Z,2.89
2019-01-09T04:35:01.775Z,2.96
2019-01-09T04:40:02.111Z,2.89
2019-01-09T04:45:01.437Z,2.95
2019-01-09T04:50:01.726Z,2.98
2019-01-09T04:55:02.017Z,3.01
2019-01-09T05:00:01.337Z,3.01
2019-01-09T05:05:01.631Z,2.98
2019-01-09T05:10:01.895Z,2.95
2019-01-09T05:15:01.159Z,2.81
2019-01-09T05:20:01.494Z,2.74
2019-01-09T05:25:01.763Z,2.6
2019-01-09T05:30:02.022Z,2.53
2019-01-09T05:35:01.387Z,2.46
2019-01-09T05:40:01.795Z,2.49
2019-01-09T05:45:01.105Z,2.46
2019-01-09T05:50:01.409Z,2.52
2019-01-09T05:55:01.698Z,2.66
2019-01-09T06:00:02.005Z,2.59
2019-01-09T06:05:01.299Z,2.6
2019-01-09T06:10:01.569Z,2.61
2019-01-09T06:15:01.861Z,2.64
2019-01-09T06:20:01.175Z,2.51
2019-01-09T06:25:01.476Z,2.55
2019-01-09T06:30:01.780Z,2.42
2019-01-09T06:35:02.063Z,2.06
2019-01-09T06:40:01.369Z,2.17
2019-01-09T06:45:01.665Z,1.65
2019-01-09T06:50:01.994Z,0.95
2019-01-09T06:55:01.345Z,0.77
2019-01-09T07:00:01.840Z,0.52
2019-01-09T07:05:01.164Z,0.52
2019-01-09T07:10:01.473Z,0.55
2019-01-09T07:15:01.816Z,0.73
2019-01-09T07:20:01.479Z,0.78
2019-01-09T07:25:01.847Z,0.89
2019-01-09T07:30:01.132Z,0.93
2019-01-09T07:35:01.475Z,1.12
2019-01-09T07:40:01.817Z,1.24
2019-01-09T07:45:01.109Z,1.71
2019-01-09T07:50:01.385Z,1.61
2019-01-09T07:55:01.688Z,1.65
2019-01-09T08:00:01.965Z,1.71
2019-01-09T08:05:01.260Z,1.88
2019-01-09T08:10:01.569Z,1.9
2019-01-09T08:15:01.869Z,1.94
2019-01-09T08:20:01.131Z,1.87
2019-01-09T08:25:01.412Z,1.99
2019-01-09T08:30:01.729Z,1.98
2019-01-09T08:35:02.044Z,2
2019-01-09T08:40:01.327Z,2.03
2019-01-09T08:45:01.611Z,1.92
2019-01-09T08:50:01.916Z,1.97
2019-01-09T08:55:01.245Z,2.13
2019-01-09T09:00:01.571Z,2.19
2019-01-09T09:05:01.955Z,2.28
2019-01-09T09:10:01.244Z,2.36
2019-01-09T09:15:01.546Z,2.41
2019-01-09T09:20:01.861Z,2.42
2019-01-09T09:25:01.298Z,2.41
2019-01-09T09:30:01.686Z,2.41
2019-01-09T09:35:02.023Z,2.5
2019-01-09T09:40:01.283Z,2.46
2019-01-09T09:45:01.599Z,2.56
2019-01-09T09:50:01.922Z,2.61
2019-01-09T09:55:01.211Z,2.6
2019-01-09T10:00:01.688Z,2.82
2019-01-09T10:05:01.986Z,2.71
2019-01-09T10:10:01.302Z,2.69
2019-01-09T10:15:01.599Z,2.73
2019-01-09T10:20:01.886Z,2.85
2019-01-09T10:25:01.266Z,2.88
2019-01-09T10:30:01.560Z,2.87
2019-01-09T10:35:01.842Z,2.98
2019-01-09T10:40:01.122Z,3.11
2019-01-09T10:45:01.421Z,3.18
2019-01-09T10:50:01.731Z,3.26
2019-01-09T10:55:01.129Z,3.23
2019-01-09T11:00:01.418Z,3.24
2019-01-09T11:05:01.738Z,3.35
2019-01-09T11:10:02.001Z,3.35
2019-01-09T11:15:01.348Z,3.25
2019-01-09T11:20:01.642Z,3.29
2019-01-09T11:25:02.016Z,3.2
2019-01-09T11:30:01.289Z,3.26
2019-01-09T11:35:01.601Z,3.28
2019-01-09T11:40:01.898Z,3.32
2019-01-09T11:45:01.199Z,3.41
2019-01-09T11:50:01.501Z,3.52
2019-01-09T11:55:01.799Z,3.76
2019-01-09T12:00:02.131Z,3.94
2019-01-09T12:05:01.386Z,3.89
2019-01-09T12:10:01.643Z,3.95
2019-01-09T12:15:01.969Z,3.98
2019-01-09T12:20:01.288Z,3.9
2019-01-09T12:25:01.584Z,4.05
2019-01-09T12:30:01.898Z,4.22
2019-01-09T12:35:01.223Z,4.26
2019-01-09T12:40:01.631Z,4.31
2019-01-09T12:45:01.973Z,4.28
2019-01-09T12:50:01.231Z,4.09
2019-01-09T12:55:01.540Z,4.35
2019-01-09T13:00:01.855Z,4.33
2019-01-09T13:05:01.129Z,4.3
2019-01-09T13:10:01.424Z,4.45
2019-01-09T13:15:01.715Z,4.48
2019-01-09T13:20:02.043Z,4.38
2019-01-09T13:25:01.299Z,4.47
2019-01-09T13:30:01.601Z,4.41
2019-01-09T13:35:01.923Z,4.37
2019-01-09T13:40:01.217Z,4.34
2019-01-09T13:45:01.506Z,4.3
2019-01-09T13:50:01.828Z,4.28
2019-01-09T13:55:01.477Z,4.32
2019-01-09T14:00:01.773Z,4.27
2019-01-09T14:05:03.684Z,4.42
2019-01-09T14:10:01.109Z,4.36
2019-01-09T14:15:01.413Z,4.39
2019-01-09T14:20:01.763Z,4.28
2019-01-09T14:25:02.036Z,4.3
2019-01-09T14:30:01.374Z,4.32
2019-01-09T14:35:01.857Z,4.31
2019-01-09T14:40:01.170Z,4.35
2019-01-09T14:45:01.491Z,4.29
2019-01-09T14:50:02.040Z,4.3
2019-01-09T14:55:01.321Z,4.18
2019-01-09T15:00:01.618Z,4.32
2019-01-09T15:05:01.922Z,4.19
2019-01-09T15:10:01.259Z,4.24
2019-01-09T15:15:01.559Z,4.16
2019-01-09T15:20:01.900Z,4.26
2019-01-09T15:25:01.191Z,4.28
2019-01-09T15:30:01.540Z,4.17
2019-01-09T15:35:01.859Z,4.18
2019-01-09T15:40:05.802Z,4.14
2019-01-09T15:45:01.518Z,4.26
2019-01-09T15:50:01.888Z,4.19
2019-01-09T15:55:01.177Z,4.22
2019-01-09T16:00:01.485Z,4.16
2019-01-09T16:05:01.810Z,4.09
2019-01-09T16:10:02.103Z,4.06
2019-01-09T16:15:01.374Z,3.98
2019-01-09T16:20:01.665Z,4.01
2019-01-09T16:25:01.958Z,3.83
2019-01-09T16:30:01.349Z,3.78
2019-01-09T16:35:01.678Z,3.7
2019-01-09T16:40:01.984Z,3.71
2019-01-09T16:45:01.311Z,3.62
2019-01-09T16:50:01.668Z,3.54
2019-01-09T16:55:01.968Z,3.56
2019-01-09T17:00:01.268Z,3.62
2019-01-09T17:05:01.686Z,3.54
2019-01-09T17:10:01.988Z,3.54
2019-01-09T17:15:01.273Z,3.52
2019-01-09T17:20:01.601Z,3.36
2019-01-09T17:25:01.807Z,3.38
2019-01-09T17:30:01.122Z,3.29
2019-01-09T17:35:01.496Z,3.43
2019-01-09T17:40:01.814Z,3.41
2019-01-09T17:45:01.124Z,3.27
2019-01-09T17:50:01.458Z,3.33
2019-01-09T17:55:01.764Z,3.31
2019-01-09T18:00:02.062Z,3.26
2019-01-09T18:05:01.316Z,3.1
2019-01-09T18:10:01.417Z,3.02
2019-01-09T18:15:01.755Z,3.01
2019-01-09T18:20:02.062Z,3.16
2019-01-09T18:25:01.330Z,3.05
2019-01-09T18:30:01.787Z,3.05
2019-01-09T18:35:01.179Z,3.04
2019-01-09T18:40:01.592Z,2.95
2019-01-09T18:45:01.906Z,2.81
2019-01-09T18:50:01.212Z,3.02
2019-01-09T18:55:01.509Z,2.84
2019-01-09T19:00:01.845Z,2.71
2019-01-09T19:05:01.166Z,2.74
2019-01-09T19:10:01.438Z,2.59
2019-01-09T19:15:01.747Z,2.65
2019-01-09T19:20:02.048Z,2.64
2019-01-09T19:25:01.375Z,2.64
2019-01-09T19:30:01.677Z,2.55
2019-01-09T19:35:02.003Z,2.59
2019-01-09T19:40:01.239Z,2.55
2019-01-09T19:45:01.515Z,2.35
2019-01-09T19:50:01.821Z,2.23
2019-01-09T19:55:01.126Z,2.25
2019-01-09T20:00:01.454Z,2.4
2019-01-09T20:05:01.761Z,2.41
2019-01-09T20:10:02.054Z,2.28
2019-01-09T20:15:01.549Z,2.38
2019-01-09T20:20:02.076Z,2.3
2019-01-09T20:25:01.579Z,2.25
2019-01-09T20:30:02.033Z,2.15
2019-01-09T20:35:01.573Z,2.11
2019-01-09T20:40:02.033Z,2.01
2019-01-09T20:45:01.410Z,1.99
2019-01-09T20:50:02.028Z,1.87
2019-01-09T20:55:01.749Z,1.93
2019-01-09T21:00:01.236Z,1.97
2019-01-09T21:05:01.492Z,1.91
2019-01-09T21:10:02.049Z,1.92
2019-01-09T21:15:01.648Z,1.98
2019-01-09T21:20:01.910Z,1.96
2019-01-09T21:25:01.170Z,1.93
2019-01-09T21:30:01.419Z,1.94
2019-01-09T21:35:01.688Z,1.93
2019-01-09T21:40:01.977Z,1.9
2019-01-09T21:45:01.203Z,1.81
2019-01-09T21:50:01.456Z,1.84
2019-01-09T21:55:01.678Z,1.85
2019-01-09T22:00:01.940Z,1.84
2019-01-09T22:05:01.181Z,1.7
2019-01-09T22:10:01.439Z,1.76
2019-01-09T22:15:01.708Z,1.76
2019-01-09T22:20:01.977Z,1.68
2019-01-09T22:25:01.218Z,1.72
2019-01-09T22:30:01.489Z,1.76
2019-01-09T22:35:01.908Z,1.8
2019-01-09T22:40:01.199Z,1.77
2019-01-09T22:45:01.561Z,1.8
2019-01-09T22:50:01.812Z,1.9
2019-01-09T22:55:02.072Z,1.9
2019-01-09T23:00:01.407Z,1.91
2019-01-09T23:05:01.658Z,1.87
2019-01-09T23:10:01.996Z,1.87
2019-01-09T23:15:01.376Z,1.91
2019-01-09T23:20:01.692Z,1.84
2019-01-09T23:25:01.983Z,1.86
2019-01-09T23:30:01.243Z,1.9
2019-01-09T23:35:01.554Z,1.88
2019-01-09T23:40:01.774Z,1.9
2019-01-09T23:45:02.052Z,1.92
2019-01-09T23:50:01.282Z,1.86
2019-01-09T23:55:01.599Z,1.87
